Time;durP1;ratioP1;P1;durP2;ratioP2;P2;SDS_P1;SDS_P2;PMS_P1;PMS_P2;Temp;Humidity;BMP_temperature;BMP_pressure;BME280_temperature;BME280_humidity;BME280_pressure;Samples;Min_cycle;Max_cycle;Signal;HPM_P1;HPM_P2
2021/05/03 00:02:00;;;;;;;0.77;0.77;;;4.80;99.90;;;;;;5042567;28;20199;-70
2021/05/03 00:04:26;;;;;;;1.57;1.30;;;4.80;99.90;;;;;;5038723;28;20222;-69
2021/05/03 00:06:54;;;;;;;1.20;1.10;;;4.80;99.90;;;;;;5042417;28;20202;-70
2021/05/03 00:09:20;;;;;;;1.00;0.90;;;4.70;99.90;;;;;;5041441;28;20256;-70
2021/05/03 00:11:47;;;;;;;1.00;0.90;;;4.80;99.90;;;;;;5041382;28;20238;-69
2021/05/03 00:14:13;;;;;;;1.20;1.10;;;4.80;99.90;;;;;;5042947;28;20234;-70
2021/05/03 00:16:39;;;;;;;1.10;1.10;;;4.80;99.90;;;;;;5036589;28;20317;-69
2021/05/03 00:19:06;;;;;;;1.00;0.90;;;4.90;99.90;;;;;;5042070;28;20534;-70
2021/05/03 00:21:32;;;;;;;1.20;1.10;;;4.90;99.90;;;;;;5038334;28;20214;-69
2021/05/03 00:24:00;;;;;;;1.20;1.10;;;4.90;99.90;;;;;;5035759;28;20233;-69
2021/05/03 00:26:26;;;;;;;2.40;1.00;;;4.90;99.90;;;;;;5039501;28;20270;-70
2021/05/03 00:28:53;;;;;;;1.63;1.53;;;4.80;99.90;;;;;;5045679;28;20208;-70
2021/05/03 00:31:19;;;;;;;1.20;1.20;;;4.80;99.90;;;;;;5032534;28;20621;-70
2021/05/03 00:33:46;;;;;;;1.47;1.37;;;4.80;99.90;;;;;;5047054;28;20261;-70
2021/05/03 00:36:12;;;;;;;2.23;1.93;;;4.80;99.90;;;;;;5038044;28;20718;-69
2021/05/03 00:38:38;;;;;;;1.70;1.60;;;4.80;99.90;;;;;;5033817;28;20628;-70
2021/05/03 00:41:06;;;;;;;1.63;1.53;;;4.80;99.90;;;;;;5049542;28;20289;-70
2021/05/03 00:43:32;;;;;;;2.03;1.93;;;4.80;99.90;;;;;;5043133;28;20206;-69
2021/05/03 00:45:59;;;;;;;1.70;1.60;;;4.80;99.90;;;;;;5038068;28;20271;-69
2021/05/03 00:48:25;;;;;;;2.63;1.90;;;4.80;99.90;;;;;;5047391;28;20257;-70
2021/05/03 00:50:52;;;;;;;2.00;1.80;;;4.90;99.90;;;;;;5046363;28;20285;-68
2021/05/03 00:53:19;;;;;;;1.80;1.70;;;4.90;99.90;;;;;;5050818;28;20248;-69
2021/05/03 00:55:45;;;;;;;1.67;1.57;;;4.90;99.90;;;;;;5037350;28;20659;-69
2021/05/03 00:58:13;;;;;;;2.43;2.20;;;4.90;99.90;;;;;;5040403;28;20289;-69
2021/05/03 01:00:40;;;;;;;2.13;1.60;;;4.90;99.90;;;;;;5042523;28;20289;-70
2021/05/03 01:03:06;;;;;;;1.70;1.60;;;4.90;99.90;;;;;;5036756;28;20270;-69
2021/05/03 01:05:34;;;;;;;1.73;1.50;;;4.90;99.90;;;;;;5040581;28;20230;-69
2021/05/03 01:08:01;;;;;;;1.73;1.27;;;4.90;99.90;;;;;;5035191;28;20293;-69
2021/05/03 01:10:28;;;;;;;1.60;1.40;;;5.00;99.90;;;;;;5038740;28;20293;-71
2021/05/03 01:12:56;;;;;;;1.70;1.60;;;4.90;99.90;;;;;;5047201;28;20297;-71
2021/05/03 01:15:23;;;;;;;2.17;1.37;;;4.90;99.90;;;;;;5038499;28;20778;-70
2021/05/03 01:18:04;;;;;;;1.40;1.30;;;5.00;99.90;;;;;;5037461;28;20199;-69
2021/05/03 01:20:32;;;;;;;1.50;1.33;;;4.90;99.90;;;;;;5043244;28;20210;-70
2021/05/03 01:23:00;;;;;;;1.30;1.20;;;5.00;99.90;;;;;;5050505;28;20270;-70
2021/05/03 01:25:30;;;;;;;1.47;1.37;;;4.90;99.90;;;;;;5049309;28;20656;-70
2021/05/03 01:27:57;;;;;;;4.47;1.57;;;5.00;99.90;;;;;;5035396;28;20234;-68
2021/05/03 01:30:30;;;;;;;1.47;1.37;;;4.90;99.90;;;;;;5033735;28;20202;-70
2021/05/03 01:32:57;;;;;;;1.93;1.43;;;5.00;99.90;;;;;;5042753;28;20328;-69
2021/05/03 01:35:23;;;;;;;1.57;1.47;;;5.00;99.90;;;;;;5030257;28;20218;-69
2021/05/03 01:37:52;;;;;;;1.93;1.60;;;5.00;99.90;;;;;;5041369;28;20228;-70
2021/05/03 01:40:20;;;;;;;1.40;1.20;;;5.10;99.90;;;;;;5044090;28;20210;-69
2021/05/03 01:42:46;;;;;;;1.40;1.30;;;5.10;99.90;;;;;;5043395;28;20241;-69
2021/05/03 01:45:14;;;;;;;2.93;1.50;;;5.10;99.90;;;;;;5039961;28;20232;-70
2021/05/03 01:47:40;;;;;;;1.60;1.50;;;5.10;99.90;;;;;;5034441;28;20230;-69
2021/05/03 01:50:09;;;;;;;1.37;1.27;;;5.10;99.90;;;;;;5047520;28;20298;-69
2021/05/03 01:52:37;;;;;;;1.63;1.40;;;5.10;99.90;;;;;;5043448;28;20610;-69
2021/05/03 01:55:05;;;;;;;1.53;1.30;;;5.10;99.90;;;;;;5043015;28;20628;-69
2021/05/03 01:57:32;;;;;;;2.00;1.60;;;5.10;99.90;;;;;;5050866;28;20206;-69
2021/05/03 01:59:59;;;;;;;1.70;1.60;;;5.10;99.90;;;;;;5041565;28;20206;-68
2021/05/03 02:02:25;;;;;;;2.57;1.63;;;5.10;99.90;;;;;;5035639;28;20284;-69
2021/05/03 02:04:52;;;;;;;1.50;1.40;;;5.10;99.90;;;;;;5040559;28;20566;-69
2021/05/03 02:07:19;;;;;;;1.63;1.43;;;5.10;99.90;;;;;;5037456;28;20213;-69
2021/05/03 02:09:46;;;;;;;2.13;1.93;;;5.10;99.90;;;;;;5039578;28;20209;-70
2021/05/03 02:12:13;;;;;;;3.70;1.67;;;5.10;99.90;;;;;;5033916;28;20230;-68
2021/05/03 02:14:41;;;;;;;2.00;1.90;;;5.20;99.90;;;;;;5035327;28;20315;-70
2021/05/03 02:17:08;;;;;;;1.90;1.80;;;5.10;99.90;;;;;;5034322;28;20294;-70
2021/05/03 02:19:34;;;;;;;1.70;1.60;;;5.10;99.90;;;;;;5053108;28;20209;-69
2021/05/03 02:22:01;;;;;;;4.67;1.90;;;5.10;99.90;;;;;;5043866;28;20258;-69
2021/05/03 02:24:27;;;;;;;2.53;2.00;;;5.10;99.90;;;;;;5047848;28;20209;-68
2021/05/03 02:26:54;;;;;;;1.80;1.70;;;5.10;99.90;;;;;;5040797;28;20199;-69
2021/05/03 02:29:20;;;;;;;2.40;2.20;;;5.10;99.90;;;;;;5051413;28;20309;-70
2021/05/03 02:31:48;;;;;;;3.63;2.23;;;5.10;99.90;;;;;;5050973;28;20642;-68
2021/05/03 02:34:14;;;;;;;2.40;2.20;;;5.10;99.90;;;;;;5040807;28;20233;-70
2021/05/03 02:36:41;;;;;;;2.60;2.33;;;5.10;99.90;;;;;;5036264;28;20683;-68
2021/05/03 02:39:08;;;;;;;2.53;2.20;;;5.10;99.90;;;;;;5041862;28;20198;-67
2021/05/03 02:41:35;;;;;;;3.03;2.33;;;5.10;99.90;;;;;;5046643;28;20281;-69
2021/05/03 02:44:01;;;;;;;2.33;2.03;;;5.10;99.90;;;;;;5038427;28;20210;-67
2021/05/03 02:46:28;;;;;;;3.30;2.73;;;5.10;99.90;;;;;;5037806;28;20286;-69
2021/05/03 02:48:56;;;;;;;3.10;2.80;;;5.10;99.90;;;;;;5050820;28;20685;-69
2021/05/03 02:51:22;;;;;;;2.83;2.50;;;5.10;99.90;;;;;;5050173;28;20293;-69
2021/05/03 02:53:49;;;;;;;2.70;2.50;;;5.10;99.90;;;;;;5048034;28;20206;-69
2021/05/03 02:56:15;;;;;;;3.20;2.70;;;5.10;99.90;;;;;;5036801;28;20219;-68
2021/05/03 02:58:42;;;;;;;3.53;2.50;;;5.10;99.90;;;;;;5046896;28;20203;-68
2021/05/03 03:01:08;;;;;;;2.97;2.30;;;5.10;99.90;;;;;;5044460;28;20256;-70
2021/05/03 03:03:34;;;;;;;3.70;2.83;;;5.10;99.90;;;;;;5048480;28;20206;-69
2021/05/03 03:06:02;;;;;;;3.13;2.60;;;5.10;99.90;;;;;;5034386;28;20209;-69
2021/05/03 03:08:29;;;;;;;3.47;2.83;;;5.10;99.90;;;;;;5038113;28;20211;-68
2021/05/03 03:10:55;;;;;;;3.17;2.53;;;5.10;99.90;;;;;;5042907;28;20726;-69
2021/05/03 03:13:22;;;;;;;5.50;2.30;;;5.10;99.90;;;;;;5044826;28;20253;-70
2021/05/03 03:15:49;;;;;;;3.73;2.50;;;5.10;99.90;;;;;;5040420;28;20292;-69
2021/05/03 03:18:17;;;;;;;3.53;2.40;;;5.20;99.90;;;;;;5043698;28;20237;-68
2021/05/03 03:20:44;;;;;;;4.60;2.53;;;5.20;99.90;;;;;;5040632;28;20660;-68
2021/05/03 03:23:11;;;;;;;2.60;2.40;;;5.20;99.90;;;;;;5036936;28;20640;-69
2021/05/03 03:25:37;;;;;;;3.07;2.40;;;5.20;99.90;;;;;;5039418;28;20241;-68
2021/05/03 03:28:04;;;;;;;2.80;2.60;;;5.20;99.90;;;;;;5038423;28;20225;-69
2021/05/03 03:30:30;;;;;;;2.53;2.33;;;5.20;99.90;;;;;;5039643;28;20245;-69
2021/05/03 03:32:57;;;;;;;4.03;2.30;;;5.20;99.90;;;;;;5046958;28;20294;-68
2021/05/03 03:35:25;;;;;;;2.70;2.30;;;5.20;99.90;;;;;;5030598;28;20729;-71
2021/05/03 03:37:53;;;;;;;4.43;2.30;;;5.20;99.90;;;;;;5047164;28;20560;-69
2021/05/03 03:40:20;;;;;;;3.83;2.27;;;5.10;99.90;;;;;;5043170;28;20747;-69
2021/05/03 03:42:47;;;;;;;3.00;2.43;;;5.20;99.90;;;;;;5046846;28;20618;-68
2021/05/03 03:45:16;;;;;;;2.87;2.57;;;5.20;99.90;;;;;;5038189;28;20206;-68
2021/05/03 03:47:42;;;;;;;3.30;2.57;;;5.20;99.90;;;;;;5039264;28;20319;-69
2021/05/03 03:50:10;;;;;;;2.23;2.03;;;5.20;99.90;;;;;;5043952;28;20234;-69
2021/05/03 03:52:36;;;;;;;2.97;2.30;;;5.30;99.90;;;;;;5038708;28;20211;-69
2021/05/03 03:55:03;;;;;;;2.17;1.93;;;5.30;99.90;;;;;;5044449;28;20207;-69
2021/05/03 03:57:31;;;;;;;2.13;1.90;;;5.30;99.90;;;;;;5046448;28;20206;-69
2021/05/03 03:59:58;;;;;;;3.63;2.20;;;5.30;99.90;;;;;;5041545;28;20246;-68
2021/05/03 04:02:25;;;;;;;2.07;1.97;;;5.30;99.90;;;;;;5045255;28;20675;-71
2021/05/03 04:05:02;;;;;;;4.17;2.60;;;5.30;99.90;;;;;;5044584;28;20209;-70
2021/05/03 04:07:33;;;;;;;2.40;2.20;;;5.40;99.90;;;;;;5041967;28;20210;-69
2021/05/03 04:10:08;;;;;;;2.63;1.93;;;5.40;99.90;;;;;;5044738;28;20213;-70
2021/05/03 04:21:09;;;;;;;2.40;2.00;;;5.40;99.90;;;;;;5042462;28;20197;-68
2021/05/03 04:23:50;;;;;;;2.37;1.70;;;5.40;99.90;;;;;;5041236;28;20301;-70
2021/05/03 04:26:19;;;;;;;1.77;1.60;;;5.50;99.90;;;;;;5043572;28;20217;-69
2021/05/03 04:28:47;;;;;;;3.13;1.63;;;5.50;99.90;;;;;;5048168;28;20205;-69
2021/05/03 04:31:14;;;;;;;2.87;2.20;;;5.50;99.90;;;;;;5041659;28;20624;-68
2021/05/03 04:33:41;;;;;;;2.63;1.90;;;5.50;99.90;;;;;;5049267;28;20718;-70
2021/05/03 04:36:07;;;;;;;1.93;1.83;;;5.50;99.90;;;;;;5033024;28;20236;-69
2021/05/03 04:38:34;;;;;;;1.67;1.57;;;5.60;99.90;;;;;;5044005;28;20216;-69
2021/05/03 04:41:01;;;;;;;2.07;1.70;;;5.60;99.90;;;;;;5050223;28;20730;-69
2021/05/03 04:43:28;;;;;;;2.77;2.00;;;5.60;99.90;;;;;;5041802;28;20623;-70
2021/05/03 04:45:55;;;;;;;2.43;1.70;;;5.70;99.90;;;;;;5037888;28;20273;-69
2021/05/03 04:48:21;;;;;;;1.70;1.40;;;5.70;99.90;;;;;;5038214;28;20682;-69
2021/05/03 04:50:48;;;;;;;2.23;1.90;;;5.70;99.90;;;;;;5044285;28;20202;-69
2021/05/03 04:53:14;;;;;;;1.63;1.30;;;5.80;99.90;;;;;;5041973;28;20647;-69
2021/05/03 04:55:40;;;;;;;3.43;1.63;;;5.80;99.90;;;;;;5036199;28;20222;-70
2021/05/03 04:58:07;;;;;;;2.00;1.60;;;5.80;99.90;;;;;;5048043;28;20351;-71
2021/05/03 05:00:33;;;;;;;1.77;1.47;;;5.90;99.90;;;;;;5038224;28;20309;-69
2021/05/03 05:03:01;;;;;;;2.67;1.47;;;5.90;99.90;;;;;;5039993;28;20286;-70
2021/05/03 05:05:28;;;;;;;2.03;1.50;;;5.90;99.90;;;;;;5033102;28;20286;-70
2021/05/03 05:07:55;;;;;;;1.50;1.40;;;5.90;99.90;;;;;;5032622;28;20214;-70
2021/05/03 05:10:22;;;;;;;2.77;1.90;;;5.90;99.90;;;;;;5042257;28;20202;-68
2021/05/03 05:12:48;;;;;;;2.47;1.73;;;5.90;99.90;;;;;;5036160;28;20718;-71
2021/05/03 05:15:15;;;;;;;3.20;1.40;;;6.00;99.90;;;;;;5037023;28;20241;-69
2021/05/03 05:17:41;;;;;;;3.13;1.70;;;6.00;99.90;;;;;;5035150;28;20564;-69
2021/05/03 05:20:10;;;;;;;3.93;1.70;;;6.10;99.90;;;;;;5036925;28;20206;-71
2021/05/03 05:22:37;;;;;;;2.53;1.70;;;6.10;99.90;;;;;;5034655;28;20582;-69
2021/05/03 05:25:04;;;;;;;2.77;1.67;;;6.10;99.90;;;;;;5034546;28;20202;-69
2021/05/03 05:27:30;;;;;;;1.77;1.67;;;6.10;99.90;;;;;;5040831;28;20208;-69
2021/05/03 05:29:57;;;;;;;4.03;1.67;;;6.20;99.90;;;;;;5040288;28;20221;-70
2021/05/03 05:32:23;;;;;;;2.47;1.57;;;6.20;99.90;;;;;;5031894;28;20226;-68
2021/05/03 05:34:49;;;;;;;1.80;1.40;;;6.30;99.90;;;;;;5036621;28;20629;-69
2021/05/03 05:37:17;;;;;;;3.13;1.70;;;6.30;99.90;;;;;;5033552;28;20295;-68
2021/05/03 05:39:43;;;;;;;2.73;1.47;;;6.40;99.90;;;;;;5038886;28;20210;-69
2021/05/03 05:42:10;;;;;;;1.73;1.60;;;6.50;99.90;;;;;;5041902;28;20256;-69
2021/05/03 05:44:36;;;;;;;3.00;1.67;;;6.60;99.90;;;;;;5043519;28;20241;-71
2021/05/03 05:47:03;;;;;;;2.93;2.10;;;6.70;99.90;;;;;;5038676;28;20253;-73
2021/05/03 05:49:29;;;;;;;4.03;1.53;;;6.80;99.90;;;;;;5039683;28;20308;-71
2021/05/03 05:51:56;;;;;;;1.97;1.60;;;6.90;99.90;;;;;;5039355;28;20285;-73
2021/05/03 05:54:24;;;;;;;2.27;1.60;;;7.00;99.90;;;;;;5038639;28;20210;-74
2021/05/03 05:56:51;;;;;;;2.23;1.33;;;7.10;99.90;;;;;;5046893;28;20229;-73
2021/05/03 05:59:20;;;;;;;1.93;1.60;;;7.10;99.90;;;;;;5040911;28;20203;-74
2021/05/03 06:01:47;;;;;;;1.60;1.40;;;7.20;99.90;;;;;;5031513;28;20217;-72
2021/05/03 06:04:14;;;;;;;1.80;1.30;;;7.20;99.90;;;;;;5044882;28;20206;-72
2021/05/03 06:06:41;;;;;;;3.63;1.93;;;7.30;99.90;;;;;;5032764;28;20214;-71
2021/05/03 06:09:07;;;;;;;3.50;1.80;;;7.30;99.90;;;;;;5036845;28;20270;-72
2021/05/03 06:11:35;;;;;;;1.90;1.70;;;7.40;99.90;;;;;;5034136;28;20242;-72
2021/05/03 06:14:02;;;;;;;1.87;1.53;;;7.40;99.90;;;;;;5043545;28;20317;-73
2021/05/03 06:16:28;;;;;;;1.70;1.60;;;7.50;99.90;;;;;;5033899;28;20310;-72
2021/05/03 06:18:55;;;;;;;1.47;1.37;;;7.60;99.90;;;;;;5047969;28;20206;-72
2021/05/03 06:21:22;;;;;;;2.23;1.77;;;7.60;99.90;;;;;;5031574;28;20221;-72
2021/05/03 06:23:48;;;;;;;1.63;1.53;;;7.60;99.90;;;;;;5034766;28;20207;-73
2021/05/03 06:26:15;;;;;;;3.20;1.73;;;7.60;99.90;;;;;;5035271;28;20233;-71
2021/05/03 06:28:42;;;;;;;2.40;1.57;;;7.70;99.90;;;;;;5046376;28;20688;-71
2021/05/03 06:31:09;;;;;;;2.13;1.50;;;7.70;99.90;;;;;;5033391;28;20340;-71
2021/05/03 06:33:35;;;;;;;2.90;1.73;;;7.80;99.90;;;;;;5046882;28;20242;-72
2021/05/03 06:36:02;;;;;;;5.40;1.80;;;7.80;99.90;;;;;;5034754;28;20225;-72
2021/05/03 06:38:31;;;;;;;3.20;1.70;;;8.00;99.90;;;;;;5036122;28;20206;-73
2021/05/03 06:40:58;;;;;;;3.27;1.60;;;8.10;99.90;;;;;;5032581;28;20658;-72
2021/05/03 06:43:24;;;;;;;2.40;1.80;;;8.10;99.90;;;;;;5032783;28;20207;-72
2021/05/03 06:45:52;;;;;;;3.97;1.63;;;8.10;99.90;;;;;;5038681;28;20621;-72
2021/05/03 06:48:18;;;;;;;2.13;1.73;;;8.10;99.90;;;;;;5034648;28;20293;-74
2021/05/03 06:50:45;;;;;;;3.13;1.80;;;8.00;99.90;;;;;;5040409;28;20264;-72
2021/05/03 06:53:12;;;;;;;1.90;1.70;;;8.00;99.90;;;;;;5034446;28;20245;-75
2021/05/03 06:55:39;;;;;;;1.83;1.73;;;8.00;99.90;;;;;;5034851;28;20683;-74
2021/05/03 06:58:05;;;;;;;2.20;1.70;;;7.90;99.90;;;;;;5039544;28;20291;-76
2021/05/03 07:00:38;;;;;;;2.37;1.40;;;8.00;99.90;;;;;;5036916;28;20210;-68
2021/05/03 07:03:08;;;;;;;2.00;1.80;;;8.00;99.90;;;;;;5046978;28;20203;-71
2021/05/03 07:05:35;;;;;;;1.47;1.37;;;8.10;99.90;;;;;;5035247;28;20226;-74
2021/05/03 07:08:01;;;;;;;2.03;1.60;;;8.20;99.90;;;;;;5035868;28;20202;-70
2021/05/03 07:10:28;;;;;;;3.10;1.30;;;8.30;99.90;;;;;;5040282;28;20310;-71
2021/05/03 07:12:54;;;;;;;2.47;1.40;;;8.40;99.90;;;;;;5038466;28;20203;-70
2021/05/03 07:15:21;;;;;;;3.50;1.50;;;8.50;99.90;;;;;;5042850;28;20222;-69
2021/05/03 07:17:47;;;;;;;1.70;1.30;;;8.60;99.90;;;;;;5050967;28;20209;-71
2021/05/03 07:20:16;;;;;;;1.53;1.40;;;8.70;99.90;;;;;;5041849;28;20207;-71
2021/05/03 07:22:44;;;;;;;3.30;1.37;;;8.80;99.70;;;;;;5036190;28;20285;-71
2021/05/03 07:25:12;;;;;;;2.10;1.90;;;8.90;99.20;;;;;;5037649;28;20296;-71
2021/05/03 07:27:40;;;;;;;2.17;1.67;;;9.00;97.20;;;;;;5035271;28;20210;-72
2021/05/03 07:30:09;;;;;;;4.00;1.40;;;9.10;96.50;;;;;;5039422;28;20202;-71
2021/05/03 07:32:37;;;;;;;1.70;1.50;;;9.20;96.00;;;;;;5040890;28;20246;-72
2021/05/03 07:35:04;;;;;;;2.17;1.40;;;9.30;95.50;;;;;;5046128;28;20718;-73
2021/05/03 07:37:31;;;;;;;3.20;1.70;;;9.40;95.60;;;;;;5038100;28;20238;-74
2021/05/03 07:39:58;;;;;;;3.97;1.97;;;9.50;94.10;;;;;;5042510;28;20222;-70
2021/05/03 07:42:25;;;;;;;3.07;1.30;;;9.60;93.00;;;;;;5048922;28;20687;-69
2021/05/03 07:44:51;;;;;;;2.03;1.40;;;9.70;92.40;;;;;;5041691;28;20207;-70
2021/05/03 07:47:18;;;;;;;4.00;1.27;;;9.80;92.60;;;;;;5042229;28;20556;-73
2021/05/03 07:49:44;;;;;;;2.57;1.30;;;10.00;91.10;;;;;;5037448;28;20211;-74
2021/05/03 07:52:11;;;;;;;2.50;1.30;;;10.00;88.10;;;;;;5034095;28;20211;-71
2021/05/03 07:54:38;;;;;;;3.63;1.43;;;10.10;86.50;;;;;;5032480;28;20214;-69
2021/05/03 07:57:04;;;;;;;2.03;1.30;;;10.20;85.30;;;;;;5036251;28;20703;-68
2021/05/03 07:59:31;;;;;;;1.67;1.30;;;10.20;83.20;;;;;;5042075;28;20222;-67
2021/05/03 08:01:57;;;;;;;2.20;1.60;;;10.20;83.20;;;;;;5040615;28;20207;-70
2021/05/03 08:04:24;;;;;;;1.27;1.10;;;10.30;83.00;;;;;;5037055;28;20221;-69
2021/05/03 08:06:57;;;;;;;1.43;1.20;;;10.40;82.10;;;;;;5035440;28;20203;-70
2021/05/03 08:09:24;;;;;;;1.03;0.90;;;10.40;81.20;;;;;;5034960;28;20207;-70
2021/05/03 08:11:52;;;;;;;1.10;1.00;;;10.40;79.00;;;;;;5036074;28;20233;-70
2021/05/03 08:14:20;;;;;;;0.73;0.73;;;10.50;76.60;;;;;;5042048;28;20226;-71
2021/05/03 08:16:49;;;;;;;1.30;1.00;;;10.50;75.00;;;;;;5034065;28;20765;-70
2021/05/03 08:19:16;;;;;;;1.27;1.07;;;10.50;74.50;;;;;;5030867;28;20237;-71
2021/05/03 08:21:42;;;;;;;1.30;1.00;;;10.50;74.80;;;;;;5037913;28;20289;-70
2021/05/03 08:24:08;;;;;;;1.50;1.17;;;10.60;74.70;;;;;;5050699;28;20210;-69
2021/05/03 08:26:35;;;;;;;2.07;1.10;;;10.70;74.50;;;;;;5040168;28;20198;-71
2021/05/03 08:29:03;;;;;;;0.97;0.90;;;10.80;74.10;;;;;;5038045;28;20711;-71
2021/05/03 08:31:30;;;;;;;1.60;1.10;;;10.90;73.60;;;;;;5040316;28;20211;-71
2021/05/03 08:33:57;;;;;;;1.40;1.30;;;11.00;73.00;;;;;;5046156;28;20702;-69
2021/05/03 08:36:23;;;;;;;1.33;0.97;;;11.00;71.60;;;;;;5043408;28;20703;-70
2021/05/03 08:38:50;;;;;;;1.00;0.90;;;11.10;71.70;;;;;;5038278;28;20211;-71
2021/05/03 08:41:16;;;;;;;0.80;0.80;;;11.30;71.50;;;;;;5040424;28;20651;-71
2021/05/03 08:43:43;;;;;;;2.03;0.90;;;11.40;71.00;;;;;;5034159;28;20217;-70
2021/05/03 08:46:15;;;;;;;1.13;1.03;;;11.60;69.80;;;;;;5037310;28;20226;-69
2021/05/03 08:48:51;;;;;;;1.40;0.93;;;11.60;68.30;;;;;;5034350;28;20206;-70
2021/05/03 08:51:28;;;;;;;2.23;1.10;;;11.80;68.00;;;;;;5034849;28;20267;-70
2021/05/03 08:54:00;;;;;;;1.60;1.10;;;11.90;67.00;;;;;;5035063;28;20256;-71
2021/05/03 08:56:26;;;;;;;1.27;1.13;;;12.00;66.00;;;;;;5028669;28;20206;-71
2021/05/03 08:58:53;;;;;;;1.87;1.40;;;12.20;66.70;;;;;;5039688;28;20325;-70
2021/05/03 09:01:23;;;;;;;0.80;0.80;;;12.30;66.80;;;;;;5035741;28;20582;-68
2021/05/03 09:03:52;;;;;;;1.73;0.90;;;12.40;65.40;;;;;;5046187;28;20203;-67
2021/05/03 09:06:18;;;;;;;2.20;1.13;;;12.50;64.00;;;;;;5039522;28;20198;-68
2021/05/03 09:08:46;;;;;;;1.00;0.90;;;12.70;61.80;;;;;;5029904;28;20202;-67
2021/05/03 09:11:15;;;;;;;0.90;0.70;;;12.90;60.80;;;;;;5027063;28;20209;-68
2021/05/03 09:13:42;;;;;;;1.63;1.00;;;13.00;59.50;;;;;;5032390;28;20278;-67
2021/05/03 09:16:15;;;;;;;1.17;0.97;;;13.10;57.70;;;;;;5030183;28;20226;-66
2021/05/03 09:18:43;;;;;;;1.67;0.80;;;13.20;56.50;;;;;;5038776;28;20267;-67
2021/05/03 09:21:23;;;;;;;1.63;1.00;;;13.30;55.60;;;;;;5032396;28;20228;-67
2021/05/03 09:24:03;;;;;;;1.40;1.20;;;13.30;55.50;;;;;;5031328;28;20194;-67
2021/05/03 09:26:35;;;;;;;2.70;1.50;;;13.30;55.60;;;;;;5035320;28;20198;-68
2021/05/03 09:29:22;;;;;;;1.53;1.30;;;13.00;56.50;;;;;;5038342;28;20238;-71
2021/05/03 09:32:01;;;;;;;1.70;1.07;;;12.80;57.30;;;;;;5034383;28;20207;-70
2021/05/03 09:34:30;;;;;;;1.27;1.17;;;12.50;58.90;;;;;;5038064;28;20261;-71
2021/05/03 09:37:26;;;;;;;1.27;1.00;;;12.40;60.40;;;;;;5037416;28;20560;-71
2021/05/03 09:39:58;;;;;;;3.57;1.40;;;12.40;61.70;;;;;;5038338;28;20715;-69
2021/05/03 09:42:40;;;;;;;1.50;1.20;;;12.60;61.20;;;;;;5034358;28;20245;-73
2021/05/03 09:45:09;;;;;;;1.20;1.10;;;12.60;61.00;;;;;;5033808;28;20614;-73
2021/05/03 09:47:37;;;;;;;2.60;1.60;;;12.70;62.10;;;;;;5038528;28;20643;-74
2021/05/03 09:50:07;;;;;;;1.23;1.10;;;12.70;61.70;;;;;;5034428;28;20282;-73
2021/05/03 09:52:34;;;;;;;1.33;1.23;;;12.70;62.60;;;;;;5038009;28;20267;-73
2021/05/03 09:55:00;;;;;;;2.07;1.10;;;12.70;63.00;;;;;;5033779;28;20305;-73
2021/05/03 09:57:27;;;;;;;1.40;1.20;;;12.90;61.50;;;;;;5034266;28;20261;-69
2021/05/03 09:59:56;;;;;;;1.43;1.20;;;13.10;61.30;;;;;;5033436;28;20218;-69
2021/05/03 10:02:25;;;;;;;1.27;1.17;;;13.40;61.20;;;;;;5036104;28;20233;-69
2021/05/03 10:04:55;;;;;;;2.83;1.40;;;13.50;59.60;;;;;;5035995;28;20214;-70
2021/05/03 10:07:24;;;;;;;1.17;1.07;;;13.30;60.10;;;;;;5033417;28;20207;-72
2021/05/03 10:09:56;;;;;;;4.20;1.40;;;13.20;60.80;;;;;;5037981;28;20234;-72
2021/05/03 10:12:25;;;;;;;1.07;1.07;;;13.00;60.40;;;;;;5033888;28;20222;-72
2021/05/03 10:14:53;;;;;;;1.30;1.20;;;12.80;61.30;;;;;;5045869;28;20260;-73
2021/05/03 10:17:20;;;;;;;1.70;1.17;;;12.80;61.30;;;;;;5036460;28;20226;-73
2021/05/03 10:19:51;;;;;;;1.93;1.43;;;12.70;61.20;;;;;;5035414;28;20287;-73
2021/05/03 10:22:19;;;;;;;3.40;1.50;;;12.70;61.80;;;;;;5029624;28;20297;-72
2021/05/03 10:24:49;;;;;;;1.97;1.60;;;12.80;61.40;;;;;;5031148;28;20206;-75
2021/05/03 10:27:18;;;;;;;1.70;1.40;;;12.70;60.50;;;;;;5032883;28;20199;-73
2021/05/03 10:29:45;;;;;;;1.63;1.53;;;12.60;60.40;;;;;;5032373;28;20206;-73
2021/05/03 10:32:14;;;;;;;2.80;1.50;;;12.60;61.50;;;;;;5032582;28;20242;-73
2021/05/03 10:34:46;;;;;;;5.03;1.50;;;12.60;60.50;;;;;;5032276;28;20249;-74
2021/05/03 10:37:52;;;;;;;1.40;1.30;;;12.70;59.70;;;;;;5043593;28;20312;-72
2021/05/03 10:40:51;;;;;;;1.50;1.30;;;12.60;59.60;;;;;;5040801;28;20313;-73
2021/05/03 10:43:42;;;;;;;1.40;1.30;;;12.70;59.70;;;;;;5033038;28;20206;-72
2021/05/03 10:48:57;;;;;;;1.73;1.60;;;12.50;59.30;;;;;;5039114;28;20189;-73
2021/05/03 10:54:51;;;;;;;1.50;1.40;;;11.70;62.50;;;;;;5036830;28;20201;-74
2021/05/03 10:57:40;;;;;;;1.50;1.20;;;11.20;65.50;;;;;;5036621;28;20234;-71
2021/05/03 11:00:13;;;;;;;2.97;1.87;;;10.90;67.90;;;;;;5035994;28;20217;-73
2021/05/03 11:02:45;;;;;;;2.20;2.00;;;10.90;70.50;;;;;;5025688;28;20211;-74
2021/05/03 11:05:22;;;;;;;1.33;1.17;;;11.30;74.90;;;;;;5046687;28;20213;-74
2021/05/03 11:08:21;;;;;;;1.60;1.50;;;11.90;71.30;;;;;;5044493;28;20228;-72
2021/05/03 11:11:11;;;;;;;2.87;1.43;;;12.40;68.90;;;;;;4975445;28;20303;-70
2021/05/03 11:13:50;;;;;;;2.40;1.60;;;12.40;66.80;;;;;;5033140;28;20238;-72
2021/05/03 11:16:54;;;;;;;2.00;1.40;;;12.30;67.50;;;;;;5049237;28;20687;-71
2021/05/03 11:19:42;;;;;;;1.87;1.43;;;12.10;67.80;;;;;;5035686;28;20221;-71
2021/05/03 11:22:14;;;;;;;1.80;1.33;;;12.10;70.00;;;;;;5031780;28;20249;-73
2021/05/03 11:24:46;;;;;;;1.67;1.40;;;12.20;71.40;;;;;;5037002;28;20212;-73
2021/05/03 11:27:16;;;;;;;2.50;1.47;;;12.50;72.40;;;;;;5037432;28;20213;-73
2021/05/03 11:29:47;;;;;;;1.40;1.30;;;12.90;69.50;;;;;;5036486;28;20215;-66
2021/05/03 11:32:15;;;;;;;3.10;1.43;;;13.30;69.30;;;;;;5037076;28;20265;-77
2021/05/03 11:34:59;;;;;;;1.30;1.03;;;13.40;67.90;;;;;;5037312;28;20206;-72
2021/05/03 11:37:38;;;;;;;1.70;1.37;;;13.20;66.10;;;;;;5032498;28;20222;-72
2021/05/03 11:40:14;;;;;;;1.93;1.20;;;13.10;67.10;;;;;;5036380;28;20206;-67
2021/05/03 11:43:05;;;;;;;1.30;1.20;;;13.20;66.90;;;;;;5027738;28;20206;-69
2021/05/03 11:45:34;;;;;;;2.43;1.20;;;13.30;66.00;;;;;;5035546;28;20241;-71
2021/05/03 11:48:01;;;;;;;3.03;1.40;;;13.20;64.20;;;;;;5036729;28;20653;-68
2021/05/03 11:50:29;;;;;;;2.00;1.33;;;13.00;64.00;;;;;;5037275;28;20241;-69
2021/05/03 11:52:55;;;;;;;2.40;1.53;;;12.80;64.20;;;;;;5036629;28;20211;-69
2021/05/03 11:55:25;;;;;;;1.80;1.37;;;12.50;64.50;;;;;;5037489;28;20226;-70
2021/05/03 11:57:51;;;;;;;2.27;1.40;;;12.30;64.80;;;;;;5030259;28;20223;-70
2021/05/03 12:00:20;;;;;;;2.07;1.10;;;12.10;65.60;;;;;;5036549;28;20253;-68
2021/05/03 12:02:59;;;;;;;7.60;1.60;;;12.00;65.10;;;;;;5035108;28;20214;-70
2021/05/03 12:05:25;;;;;;;1.53;1.40;;;11.80;66.10;;;;;;5035579;28;20229;-73
2021/05/03 12:07:52;;;;;;;2.90;1.50;;;11.60;66.00;;;;;;5035881;28;20266;-74
2021/05/03 12:10:20;;;;;;;3.33;1.40;;;11.50;66.80;;;;;;5036405;28;20260;-69
2021/05/03 12:12:49;;;;;;;1.90;1.60;;;11.40;68.30;;;;;;5036793;28;20716;-70
2021/05/03 12:15:18;;;;;;;1.70;1.40;;;11.20;69.10;;;;;;5033879;28;20313;-67
2021/05/03 12:17:45;;;;;;;1.80;1.60;;;11.20;70.70;;;;;;5035248;28;20809;-72
2021/05/03 12:20:15;;;;;;;1.70;1.40;;;11.20;70.80;;;;;;5035651;28;20715;-70
2021/05/03 12:22:52;;;;;;;2.67;1.70;;;11.40;71.00;;;;;;5035837;28;20214;-71
2021/05/03 12:25:19;;;;;;;2.30;2.07;;;11.50;71.10;;;;;;5044741;28;20209;-71
2021/05/03 12:27:45;;;;;;;3.13;2.13;;;11.50;71.30;;;;;;5032071;28;20293;-70
2021/05/03 12:30:13;;;;;;;2.13;2.00;;;11.50;71.20;;;;;;5033133;28;20203;-67
2021/05/03 12:32:41;;;;;;;3.03;2.40;;;11.40;70.20;;;;;;5040222;28;20318;-67
2021/05/03 12:35:10;;;;;;;3.00;2.60;;;11.40;71.00;;;;;;5036536;28;20289;-71
2021/05/03 12:37:37;;;;;;;4.87;2.80;;;11.40;71.20;;;;;;5032878;28;20737;-72
2021/05/03 12:40:09;;;;;;;3.10;2.40;;;11.40;71.60;;;;;;5032123;28;20301;-70
2021/05/03 12:42:40;;;;;;;6.43;2.83;;;11.30;71.90;;;;;;5037433;28;20221;-68
2021/05/03 12:45:34;;;;;;;4.77;3.07;;;11.50;72.10;;;;;;5034926;28;20717;-66
2021/05/03 12:50:51;;;;;;;4.97;3.50;;;11.70;73.20;;;;;;5039704;28;20238;-66
2021/05/03 12:53:23;;;;;;;6.37;3.57;;;11.60;74.40;;;;;;5042145;28;20209;-67
2021/05/03 12:56:06;;;;;;;6.30;3.80;;;11.50;75.50;;;;;;5031464;28;20352;-68
2021/05/03 12:58:38;;;;;;;4.17;3.50;;;11.50;77.40;;;;;;5033221;28;20210;-66
2021/05/03 13:01:25;;;;;;;9.27;4.33;;;11.40;79.10;;;;;;5032872;28;20198;-67
2021/05/03 13:03:58;;;;;;;4.13;3.73;;;11.10;81.60;;;;;;5039475;28;20222;-68
2021/05/03 13:06:32;;;;;;;4.97;3.40;;;10.90;83.60;;;;;;5044757;28;20688;-67
2021/05/03 13:09:21;;;;;;;4.87;4.20;;;10.70;87.20;;;;;;5050997;28;20380;-68
2021/05/03 13:29:06;;;;;;;5.67;4.10;;;9.80;99.90;;;;;;5042814;28;20340;-67
2021/05/03 13:31:34;;;;;;;4.60;3.73;;;9.90;99.90;;;;;;5040423;28;20213;-68
2021/05/03 13:34:01;;;;;;;5.20;3.50;;;10.00;99.90;;;;;;5033760;28;20314;-68
2021/05/03 13:36:29;;;;;;;4.97;4.00;;;10.10;99.90;;;;;;5030345;28;20321;-71
2021/05/03 13:38:56;;;;;;;5.33;3.60;;;10.20;99.90;;;;;;5034665;28;20670;-70